KHUA

Redstone AAF Airport

Redstone Arsnl Huntsville, Alabama, USA
METAR KHUA 210658Z AUTO 00000KT 9SM CLR 20/19 A3008 RMK AO2 RAB0558E09RAB19E28RAB34E47RAB57 SLP180 P0000 $
Observed Flight Rules
May-21 @ 06:58 UTC (13 minutes ago) Visual Flight Rules
Visibility Clouds
9 miles
  • Clear skies
Temperatures Readings Precipitation
Current 20°C / 68°F
Dewpoint 19°C / 66°F
Humidity 94%
Altimeter 30.08" Hg
Pressure 1018 hPa
Elevation 209
Current Rain 0.005
METAR KHUA 210658Z AUTO 00000KT 9SM CLR 20/19 A3008 RMK AO2 RAB0558E09RAB19E28RAB34E47RAB57 SLP180 P0000 $
Observed Flight Rules
May-21 @ 06:58 UTC
(13 minutes ago)
VFR
Clouds
  • Clear skies
Temperature Dewpoint
20°C / 68°F 19°C / 66°F
Humidity Altimeter Pressure
94% 30.08" Hg 1018 hPa
Current Rain
0.005